sensor_id;sensor_type;location;lat;lon;timestamp;P1;durP1;ratioP1;P2;durP2;ratioP2
53313;SDS011;39202;51.468;7.146;2023-04-08T00:02:26;1.10;;;1.10;;
53313;SDS011;39202;51.468;7.146;2023-04-08T00:07:28;1.10;;;1.10;;
53313;SDS011;39202;51.468;7.146;2023-04-08T00:12:29;1.25;;;1.20;;
53313;SDS011;39202;51.468;7.146;2023-04-08T00:17:33;1.20;;;1.10;;
53313;SDS011;39202;51.468;7.146;2023-04-08T00:22:34;1.13;;;1.13;;
53313;SDS011;39202;51.468;7.146;2023-04-08T00:27:36;1.13;;;1.13;;
53313;SDS011;39202;51.468;7.146;2023-04-08T00:32:39;1.20;;;1.20;;
53313;SDS011;39202;51.468;7.146;2023-04-08T00:37:41;1.15;;;1.15;;
53313;SDS011;39202;51.468;7.146;2023-04-08T00:42:43;1.02;;;1.02;;
53313;SDS011;39202;51.468;7.146;2023-04-08T00:47:46;1.10;;;1.10;;
53313;SDS011;39202;51.468;7.146;2023-04-08T00:52:51;1.17;;;1.17;;
53313;SDS011;39202;51.468;7.146;2023-04-08T00:57:53;1.10;;;1.10;;
53313;SDS011;39202;51.468;7.146;2023-04-08T01:02:58;1.30;;;1.30;;
53313;SDS011;39202;51.468;7.146;2023-04-08T01:08:09;1.10;;;1.10;;
53313;SDS011;39202;51.468;7.146;2023-04-08T01:13:13;1.33;;;1.33;;
53313;SDS011;39202;51.468;7.146;2023-04-08T01:18:20;1.20;;;1.20;;
53313;SDS011;39202;51.468;7.146;2023-04-08T01:23:24;1.20;;;1.20;;
53313;SDS011;39202;51.468;7.146;2023-04-08T01:28:37;1.20;;;1.20;;
53313;SDS011;39202;51.468;7.146;2023-04-08T01:33:42;1.30;;;1.30;;
53313;SDS011;39202;51.468;7.146;2023-04-08T01:38:46;1.00;;;1.00;;
53313;SDS011;39202;51.468;7.146;2023-04-08T01:43:50;1.20;;;1.20;;
53313;SDS011;39202;51.468;7.146;2023-04-08T01:48:53;1.17;;;1.17;;
53313;SDS011;39202;51.468;7.146;2023-04-08T01:53:56;1.23;;;1.23;;
53313;SDS011;39202;51.468;7.146;2023-04-08T01:58:59;1.00;;;1.00;;
53313;SDS011;39202;51.468;7.146;2023-04-08T02:04:02;1.10;;;1.10;;
53313;SDS011;39202;51.468;7.146;2023-04-08T02:09:04;1.38;;;1.10;;
53313;SDS011;39202;51.468;7.146;2023-04-08T02:14:08;1.00;;;1.00;;
53313;SDS011;39202;51.468;7.146;2023-04-08T02:19:10;1.40;;;1.30;;
53313;SDS011;39202;51.468;7.146;2023-04-08T02:24:16;1.20;;;1.20;;
53313;SDS011;39202;51.468;7.146;2023-04-08T02:29:20;1.20;;;1.20;;
53313;SDS011;39202;51.468;7.146;2023-04-08T02:34:22;1.25;;;1.25;;
53313;SDS011;39202;51.468;7.146;2023-04-08T02:39:29;1.10;;;1.10;;
53313;SDS011;39202;51.468;7.146;2023-04-08T02:44:33;1.10;;;1.10;;
53313;SDS011;39202;51.468;7.146;2023-04-08T02:49:35;1.25;;;1.25;;
53313;SDS011;39202;51.468;7.146;2023-04-08T02:54:36;1.17;;;1.17;;
53313;SDS011;39202;51.468;7.146;2023-04-08T02:59:40;1.20;;;1.20;;
53313;SDS011;39202;51.468;7.146;2023-04-08T03:04:42;1.00;;;1.00;;
53313;SDS011;39202;51.468;7.146;2023-04-08T03:09:44;1.23;;;1.23;;
53313;SDS011;39202;51.468;7.146;2023-04-08T03:14:47;1.20;;;1.20;;
53313;SDS011;39202;51.468;7.146;2023-04-08T03:19:49;1.10;;;1.10;;
53313;SDS011;39202;51.468;7.146;2023-04-08T03:24:50;1.33;;;1.33;;
53313;SDS011;39202;51.468;7.146;2023-04-08T03:29:53;1.30;;;1.30;;
53313;SDS011;39202;51.468;7.146;2023-04-08T03:34:56;1.13;;;1.13;;
53313;SDS011;39202;51.468;7.146;2023-04-08T03:39:58;1.20;;;1.20;;
53313;SDS011;39202;51.468;7.146;2023-04-08T03:45:01;1.20;;;1.20;;
53313;SDS011;39202;51.468;7.146;2023-04-08T03:50:03;1.20;;;1.20;;
53313;SDS011;39202;51.468;7.146;2023-04-08T03:55:06;1.40;;;1.40;;
53313;SDS011;39202;51.468;7.146;2023-04-08T04:00:10;1.30;;;1.30;;
53313;SDS011;39202;51.468;7.146;2023-04-08T04:05:13;1.30;;;1.30;;
53313;SDS011;39202;51.468;7.146;2023-04-08T04:10:14;1.20;;;1.20;;
53313;SDS011;39202;51.468;7.146;2023-04-08T04:15:18;1.27;;;1.27;;
53313;SDS011;39202;51.468;7.146;2023-04-08T04:20:19;1.20;;;1.20;;
53313;SDS011;39202;51.468;7.146;2023-04-08T04:25:21;1.20;;;1.20;;
53313;SDS011;39202;51.468;7.146;2023-04-08T04:30:25;1.30;;;1.30;;
53313;SDS011;39202;51.468;7.146;2023-04-08T04:35:27;1.35;;;1.35;;
53313;SDS011;39202;51.468;7.146;2023-04-08T04:40:29;1.25;;;1.25;;
53313;SDS011;39202;51.468;7.146;2023-04-08T04:45:32;1.25;;;1.25;;
53313;SDS011;39202;51.468;7.146;2023-04-08T04:50:34;1.38;;;1.38;;
53313;SDS011;39202;51.468;7.146;2023-04-08T04:55:35;1.08;;;1.08;;
53313;SDS011;39202;51.468;7.146;2023-04-08T05:00:38;1.30;;;1.30;;
53313;SDS011;39202;51.468;7.146;2023-04-08T05:05:40;1.30;;;1.30;;
53313;SDS011;39202;51.468;7.146;2023-04-08T05:10:42;1.20;;;1.20;;
53313;SDS011;39202;51.468;7.146;2023-04-08T05:15:45;1.30;;;1.30;;
53313;SDS011;39202;51.468;7.146;2023-04-08T05:20:47;1.33;;;1.33;;
53313;SDS011;39202;51.468;7.146;2023-04-08T05:25:49;1.42;;;1.40;;
53313;SDS011;39202;51.468;7.146;2023-04-08T05:30:52;1.33;;;1.30;;
53313;SDS011;39202;51.468;7.146;2023-04-08T05:35:54;1.48;;;1.38;;
53313;SDS011;39202;51.468;7.146;2023-04-08T05:40:55;1.50;;;1.50;;
53313;SDS011;39202;51.468;7.146;2023-04-08T05:45:58;1.17;;;1.17;;
53313;SDS011;39202;51.468;7.146;2023-04-08T05:51:00;1.30;;;1.30;;
53313;SDS011;39202;51.468;7.146;2023-04-08T05:56:02;1.70;;;1.60;;
53313;SDS011;39202;51.468;7.146;2023-04-08T06:01:06;1.33;;;1.33;;
53313;SDS011;39202;51.468;7.146;2023-04-08T06:06:08;1.42;;;1.33;;
53313;SDS011;39202;51.468;7.146;2023-04-08T06:11:11;1.30;;;1.30;;
53313;SDS011;39202;51.468;7.146;2023-04-08T06:16:15;1.25;;;1.25;;
53313;SDS011;39202;51.468;7.146;2023-04-08T06:21:17;1.40;;;1.40;;
53313;SDS011;39202;51.468;7.146;2023-04-08T06:26:19;1.42;;;1.42;;
53313;SDS011;39202;51.468;7.146;2023-04-08T06:31:22;1.67;;;1.58;;
53313;SDS011;39202;51.468;7.146;2023-04-08T06:36:23;1.50;;;1.40;;
53313;SDS011;39202;51.468;7.146;2023-04-08T06:41:25;1.60;;;1.50;;
53313;SDS011;39202;51.468;7.146;2023-04-08T06:46:28;1.60;;;1.50;;
53313;SDS011;39202;51.468;7.146;2023-04-08T06:51:30;1.48;;;1.40;;
53313;SDS011;39202;51.468;7.146;2023-04-08T06:56:32;1.60;;;1.50;;
53313;SDS011;39202;51.468;7.146;2023-04-08T07:01:35;1.80;;;1.70;;
53313;SDS011;39202;51.468;7.146;2023-04-08T07:06:36;2.28;;;2.00;;
53313;SDS011;39202;51.468;7.146;2023-04-08T07:11:38;1.95;;;1.85;;
53313;SDS011;39202;51.468;7.146;2023-04-08T07:16:41;1.85;;;1.75;;
53313;SDS011;39202;51.468;7.146;2023-04-08T07:21:43;1.60;;;1.50;;
53313;SDS011;39202;51.468;7.146;2023-04-08T07:26:45;1.92;;;1.83;;
53313;SDS011;39202;51.468;7.146;2023-04-08T07:31:48;1.90;;;1.80;;
53313;SDS011;39202;51.468;7.146;2023-04-08T07:36:50;1.85;;;1.75;;
53313;SDS011;39202;51.468;7.146;2023-04-08T07:41:52;1.80;;;1.70;;
53313;SDS011;39202;51.468;7.146;2023-04-08T07:46:55;1.80;;;1.70;;
53313;SDS011;39202;51.468;7.146;2023-04-08T07:51:57;1.80;;;1.70;;
53313;SDS011;39202;51.468;7.146;2023-04-08T07:56:59;1.90;;;1.80;;
53313;SDS011;39202;51.468;7.146;2023-04-08T08:02:03;1.88;;;1.77;;
53313;SDS011;39202;51.468;7.146;2023-04-08T08:07:05;2.20;;;2.10;;
53313;SDS011;39202;51.468;7.146;2023-04-08T08:12:06;1.92;;;1.83;;
53313;SDS011;39202;51.468;7.146;2023-04-08T08:17:09;2.15;;;1.95;;
53313;SDS011;39202;51.468;7.146;2023-04-08T08:22:11;2.22;;;2.13;;
53313;SDS011;39202;51.468;7.146;2023-04-08T08:27:13;2.47;;;2.28;;
53313;SDS011;39202;51.468;7.146;2023-04-08T08:32:16;2.78;;;2.58;;
53313;SDS011;39202;51.468;7.146;2023-04-08T08:37:18;3.38;;;2.97;;
53313;SDS011;39202;51.468;7.146;2023-04-08T08:42:20;3.35;;;2.50;;
53313;SDS011;39202;51.468;7.146;2023-04-08T08:47:24;3.13;;;2.85;;
53313;SDS011;39202;51.468;7.146;2023-04-08T08:52:25;4.65;;;2.83;;
53313;SDS011;39202;51.468;7.146;2023-04-08T08:57:27;2.78;;;2.58;;
53313;SDS011;39202;51.468;7.146;2023-04-08T09:02:30;3.22;;;2.90;;
53313;SDS011;39202;51.468;7.146;2023-04-08T09:07:34;3.58;;;3.20;;
53313;SDS011;39202;51.468;7.146;2023-04-08T09:12:52;3.20;;;2.90;;
53313;SDS011;39202;51.468;7.146;2023-04-08T09:17:56;3.00;;;2.80;;
53313;SDS011;39202;51.468;7.146;2023-04-08T09:22:58;3.42;;;3.13;;
53313;SDS011;39202;51.468;7.146;2023-04-08T09:28:01;3.55;;;3.25;;
53313;SDS011;39202;51.468;7.146;2023-04-08T09:33:04;4.05;;;3.63;;
53313;SDS011;39202;51.468;7.146;2023-04-08T09:38:06;3.85;;;3.20;;
53313;SDS011;39202;51.468;7.146;2023-04-08T09:43:08;3.72;;;3.15;;
53313;SDS011;39202;51.468;7.146;2023-04-08T09:48:15;4.97;;;3.40;;
53313;SDS011;39202;51.468;7.146;2023-04-08T09:53:19;3.65;;;3.08;;
53313;SDS011;39202;51.468;7.146;2023-04-08T09:58:27;3.35;;;3.05;;
53313;SDS011;39202;51.468;7.146;2023-04-08T10:03:32;3.83;;;3.00;;
53313;SDS011;39202;51.468;7.146;2023-04-08T10:08:37;5.30;;;3.20;;
53313;SDS011;39202;51.468;7.146;2023-04-08T10:13:39;3.10;;;2.90;;
53313;SDS011;39202;51.468;7.146;2023-04-08T10:18:43;3.65;;;2.97;;
53313;SDS011;39202;51.468;7.146;2023-04-08T10:23:52;3.28;;;3.00;;
53313;SDS011;39202;51.468;7.146;2023-04-08T10:28:57;3.78;;;3.30;;
53313;SDS011;39202;51.468;7.146;2023-04-08T10:34:51;3.80;;;2.90;;
53313;SDS011;39202;51.468;7.146;2023-04-08T10:39:53;4.20;;;3.70;;
53313;SDS011;39202;51.468;7.146;2023-04-08T10:44:58;4.72;;;3.28;;
53313;SDS011;39202;51.468;7.146;2023-04-08T10:50:12;3.63;;;3.33;;
53313;SDS011;39202;51.468;7.146;2023-04-08T10:55:14;4.38;;;3.28;;
53313;SDS011;39202;51.468;7.146;2023-04-08T11:00:17;3.80;;;2.97;;
53313;SDS011;39202;51.468;7.146;2023-04-08T11:05:22;3.63;;;3.00;;
53313;SDS011;39202;51.468;7.146;2023-04-08T11:10:24;3.78;;;3.17;;
53313;SDS011;39202;51.468;7.146;2023-04-08T11:15:28;3.03;;;2.75;;
53313;SDS011;39202;51.468;7.146;2023-04-08T11:20:33;3.13;;;2.83;;
53313;SDS011;39202;51.468;7.146;2023-04-08T11:25:36;2.97;;;2.65;;
53313;SDS011;39202;51.468;7.146;2023-04-08T11:30:38;3.38;;;3.08;;
53313;SDS011;39202;51.468;7.146;2023-04-08T11:35:42;3.05;;;2.75;;
53313;SDS011;39202;51.468;7.146;2023-04-08T11:40:51;2.83;;;2.63;;
53313;SDS011;39202;51.468;7.146;2023-04-08T11:45:53;3.33;;;2.72;;
53313;SDS011;39202;51.468;7.146;2023-04-08T11:51:02;2.95;;;2.75;;
53313;SDS011;39202;51.468;7.146;2023-04-08T11:56:14;3.22;;;2.92;;
53313;SDS011;39202;51.468;7.146;2023-04-08T12:01:17;3.30;;;3.00;;
53313;SDS011;39202;51.468;7.146;2023-04-08T12:06:21;3.00;;;2.80;;
53313;SDS011;39202;51.468;7.146;2023-04-08T12:11:23;3.20;;;2.88;;
53313;SDS011;39202;51.468;7.146;2023-04-08T12:16:25;2.70;;;2.50;;
53313;SDS011;39202;51.468;7.146;2023-04-08T12:21:28;2.92;;;2.72;;
53313;SDS011;39202;51.468;7.146;2023-04-08T12:26:31;3.00;;;2.70;;
53313;SDS011;39202;51.468;7.146;2023-04-08T12:31:33;3.65;;;3.00;;
53313;SDS011;39202;51.468;7.146;2023-04-08T12:36:36;3.15;;;2.85;;
53313;SDS011;39202;51.468;7.146;2023-04-08T12:41:37;2.70;;;2.50;;
53313;SDS011;39202;51.468;7.146;2023-04-08T12:46:39;3.30;;;3.00;;
53313;SDS011;39202;51.468;7.146;2023-04-08T12:51:42;2.50;;;2.30;;
53313;SDS011;39202;51.468;7.146;2023-04-08T12:56:44;2.80;;;2.60;;
53313;SDS011;39202;51.468;7.146;2023-04-08T13:01:47;2.90;;;2.67;;
53313;SDS011;39202;51.468;7.146;2023-04-08T13:06:51;3.00;;;2.70;;
53313;SDS011;39202;51.468;7.146;2023-04-08T13:11:52;2.67;;;2.47;;
53313;SDS011;39202;51.468;7.146;2023-04-08T13:16:54;3.05;;;2.80;;
53313;SDS011;39202;51.468;7.146;2023-04-08T13:21:57;2.60;;;2.40;;
53313;SDS011;39202;51.468;7.146;2023-04-08T13:26:59;2.90;;;2.70;;
53313;SDS011;39202;51.468;7.146;2023-04-08T13:32:01;2.70;;;2.50;;
53313;SDS011;39202;51.468;7.146;2023-04-08T13:37:04;2.55;;;2.38;;
53313;SDS011;39202;51.468;7.146;2023-04-08T13:42:06;2.50;;;2.30;;
53313;SDS011;39202;51.468;7.146;2023-04-08T13:47:08;2.80;;;2.60;;
53313;SDS011;39202;51.468;7.146;2023-04-08T13:52:11;2.40;;;2.30;;
53313;SDS011;39202;51.468;7.146;2023-04-08T13:57:13;2.50;;;2.35;;
53313;SDS011;39202;51.468;7.146;2023-04-08T14:02:15;2.90;;;2.70;;
53313;SDS011;39202;51.468;7.146;2023-04-08T14:07:18;2.65;;;2.45;;
53313;SDS011;39202;51.468;7.146;2023-04-08T14:12:20;2.55;;;2.35;;
53313;SDS011;39202;51.468;7.146;2023-04-08T14:17:21;2.70;;;2.50;;
53313;SDS011;39202;51.468;7.146;2023-04-08T14:22:24;2.50;;;2.30;;
53313;SDS011;39202;51.468;7.146;2023-04-08T14:27:26;2.80;;;2.60;;
53313;SDS011;39202;51.468;7.146;2023-04-08T14:32:28;2.15;;;2.05;;
53313;SDS011;39202;51.468;7.146;2023-04-08T14:37:32;2.60;;;2.40;;
53313;SDS011;39202;51.468;7.146;2023-04-08T14:42:34;2.30;;;2.20;;
53313;SDS011;39202;51.468;7.146;2023-04-08T14:47:36;2.53;;;2.33;;
53313;SDS011;39202;51.468;7.146;2023-04-08T14:52:39;2.42;;;2.30;;
53313;SDS011;39202;51.468;7.146;2023-04-08T14:57:40;2.40;;;2.20;;
53313;SDS011;39202;51.468;7.146;2023-04-08T15:02:42;2.72;;;2.53;;
53313;SDS011;39202;51.468;7.146;2023-04-08T15:07:45;2.50;;;2.30;;
53313;SDS011;39202;51.468;7.146;2023-04-08T15:12:47;2.28;;;2.10;;
53313;SDS011;39202;51.468;7.146;2023-04-08T15:17:49;2.88;;;2.25;;
53313;SDS011;39202;51.468;7.146;2023-04-08T15:22:52;2.20;;;2.10;;
53313;SDS011;39202;51.468;7.146;2023-04-08T15:27:54;2.53;;;2.33;;
53313;SDS011;39202;51.468;7.146;2023-04-08T15:32:56;2.00;;;1.90;;
53313;SDS011;39202;51.468;7.146;2023-04-08T15:37:59;2.45;;;2.35;;
53313;SDS011;39202;51.468;7.146;2023-04-08T15:43:00;2.20;;;2.10;;
53313;SDS011;39202;51.468;7.146;2023-04-08T15:48:03;2.28;;;2.17;;
53313;SDS011;39202;51.468;7.146;2023-04-08T15:53:06;2.00;;;1.90;;
53313;SDS011;39202;51.468;7.146;2023-04-08T15:58:08;2.20;;;2.10;;
53313;SDS011;39202;51.468;7.146;2023-04-08T16:03:09;2.38;;;2.22;;
53313;SDS011;39202;51.468;7.146;2023-04-08T16:08:13;2.45;;;2.30;;
53313;SDS011;39202;51.468;7.146;2023-04-08T16:13:15;2.63;;;2.42;;
53313;SDS011;39202;51.468;7.146;2023-04-08T16:18:16;2.50;;;2.30;;
53313;SDS011;39202;51.468;7.146;2023-04-08T16:23:20;2.50;;;2.30;;
53313;SDS011;39202;51.468;7.146;2023-04-08T16:28:21;2.13;;;2.03;;
53313;SDS011;39202;51.468;7.146;2023-04-08T16:33:26;2.20;;;2.10;;
53313;SDS011;39202;51.468;7.146;2023-04-08T16:38:31;2.30;;;2.20;;
53313;SDS011;39202;51.468;7.146;2023-04-08T16:43:33;2.47;;;2.28;;
53313;SDS011;39202;51.468;7.146;2023-04-08T16:48:35;3.03;;;2.45;;
53313;SDS011;39202;51.468;7.146;2023-04-08T16:53:39;2.40;;;2.30;;
53313;SDS011;39202;51.468;7.146;2023-04-08T16:58:41;2.30;;;2.10;;
53313;SDS011;39202;51.468;7.146;2023-04-08T17:03:43;2.40;;;2.30;;
53313;SDS011;39202;51.468;7.146;2023-04-08T17:08:47;2.67;;;2.50;;
53313;SDS011;39202;51.468;7.146;2023-04-08T17:13:50;2.42;;;2.30;;
53313;SDS011;39202;51.468;7.146;2023-04-08T17:18:52;2.30;;;2.20;;
53313;SDS011;39202;51.468;7.146;2023-04-08T17:23:55;2.28;;;2.17;;
53313;SDS011;39202;51.468;7.146;2023-04-08T17:28:56;2.47;;;2.28;;
53313;SDS011;39202;51.468;7.146;2023-04-08T17:33:58;2.45;;;2.28;;
53313;SDS011;39202;51.468;7.146;2023-04-08T17:39:01;2.38;;;2.20;;
53313;SDS011;39202;51.468;7.146;2023-04-08T17:44:03;2.45;;;2.33;;
53313;SDS011;39202;51.468;7.146;2023-04-08T17:49:05;2.03;;;1.92;;
53313;SDS011;39202;51.468;7.146;2023-04-08T17:54:11;2.30;;;2.20;;
53313;SDS011;39202;51.468;7.146;2023-04-08T17:59:13;2.20;;;2.10;;
53313;SDS011;39202;51.468;7.146;2023-04-08T18:04:15;2.03;;;1.92;;
53313;SDS011;39202;51.468;7.146;2023-04-08T18:09:18;1.95;;;1.85;;
53313;SDS011;39202;51.468;7.146;2023-04-08T18:14:19;2.05;;;1.95;;
53313;SDS011;39202;51.468;7.146;2023-04-08T18:19:21;2.10;;;2.00;;
53313;SDS011;39202;51.468;7.146;2023-04-08T18:24:26;2.20;;;2.10;;
53313;SDS011;39202;51.468;7.146;2023-04-08T18:29:28;2.03;;;1.92;;
53313;SDS011;39202;51.468;7.146;2023-04-08T18:34:30;2.20;;;2.10;;
53313;SDS011;39202;51.468;7.146;2023-04-08T18:39:33;2.13;;;2.00;;
53313;SDS011;39202;51.468;7.146;2023-04-08T18:44:34;1.90;;;1.80;;
53313;SDS011;39202;51.468;7.146;2023-04-08T18:49:36;1.95;;;1.85;;
53313;SDS011;39202;51.468;7.146;2023-04-08T18:54:39;2.10;;;2.00;;
53313;SDS011;39202;51.468;7.146;2023-04-08T18:59:41;2.28;;;2.08;;
53313;SDS011;39202;51.468;7.146;2023-04-08T19:04:46;2.10;;;2.00;;
53313;SDS011;39202;51.468;7.146;2023-04-08T19:09:49;2.00;;;1.90;;
53313;SDS011;39202;51.468;7.146;2023-04-08T19:14:51;2.10;;;2.00;;
53313;SDS011;39202;51.468;7.146;2023-04-08T19:19:52;2.17;;;2.08;;
53313;SDS011;39202;51.468;7.146;2023-04-08T19:24:56;1.98;;;1.88;;
53313;SDS011;39202;51.468;7.146;2023-04-08T19:29:57;2.03;;;1.92;;
53313;SDS011;39202;51.468;7.146;2023-04-08T19:35:00;2.05;;;1.95;;
53313;SDS011;39202;51.468;7.146;2023-04-08T19:40:04;1.85;;;1.75;;
53313;SDS011;39202;51.468;7.146;2023-04-08T19:45:07;2.30;;;2.10;;
53313;SDS011;39202;51.468;7.146;2023-04-08T19:50:10;2.08;;;1.98;;
53313;SDS011;39202;51.468;7.146;2023-04-08T19:55:14;1.95;;;1.85;;
53313;SDS011;39202;51.468;7.146;2023-04-08T20:00:16;1.90;;;1.80;;
53313;SDS011;39202;51.468;7.146;2023-04-08T20:05:17;2.08;;;1.98;;
53313;SDS011;39202;51.468;7.146;2023-04-08T20:10:21;2.05;;;1.95;;
53313;SDS011;39202;51.468;7.146;2023-04-08T20:15:23;1.90;;;1.80;;
53313;SDS011;39202;51.468;7.146;2023-04-08T20:20:24;1.70;;;1.70;;
53313;SDS011;39202;51.468;7.146;2023-04-08T20:25:27;1.98;;;1.88;;
53313;SDS011;39202;51.468;7.146;2023-04-08T20:30:29;1.88;;;1.77;;
53313;SDS011;39202;51.468;7.146;2023-04-08T20:35:31;1.88;;;1.77;;
53313;SDS011;39202;51.468;7.146;2023-04-08T20:40:34;1.80;;;1.70;;
53313;SDS011;39202;51.468;7.146;2023-04-08T20:45:36;1.88;;;1.77;;
53313;SDS011;39202;51.468;7.146;2023-04-08T20:50:37;1.90;;;1.80;;
53313;SDS011;39202;51.468;7.146;2023-04-08T20:55:41;1.83;;;1.73;;
53313;SDS011;39202;51.468;7.146;2023-04-08T21:00:42;1.75;;;1.65;;
53313;SDS011;39202;51.468;7.146;2023-04-08T21:05:46;2.00;;;1.90;;
53313;SDS011;39202;51.468;7.146;2023-04-08T21:10:49;1.92;;;1.83;;
53313;SDS011;39202;51.468;7.146;2023-04-08T21:15:51;1.88;;;1.77;;
53313;SDS011;39202;51.468;7.146;2023-04-08T21:20:53;1.77;;;1.70;;
53313;SDS011;39202;51.468;7.146;2023-04-08T21:25:56;1.95;;;1.85;;
53313;SDS011;39202;51.468;7.146;2023-04-08T21:31:05;1.73;;;1.65;;
53313;SDS011;39202;51.468;7.146;2023-04-08T21:36:08;1.77;;;1.67;;
53313;SDS011;39202;51.468;7.146;2023-04-08T21:41:11;2.00;;;1.90;;
53313;SDS011;39202;51.468;7.146;2023-04-08T21:46:13;1.70;;;1.60;;
53313;SDS011;39202;51.468;7.146;2023-04-08T21:51:15;1.73;;;1.63;;
53313;SDS011;39202;51.468;7.146;2023-04-08T21:56:18;1.83;;;1.73;;
53313;SDS011;39202;51.468;7.146;2023-04-08T22:01:21;1.88;;;1.77;;
53313;SDS011;39202;51.468;7.146;2023-04-08T22:06:23;1.80;;;1.70;;
53313;SDS011;39202;51.468;7.146;2023-04-08T22:11:26;1.83;;;1.73;;
53313;SDS011;39202;51.468;7.146;2023-04-08T22:16:28;1.90;;;1.80;;
53313;SDS011;39202;51.468;7.146;2023-04-08T22:21:31;1.60;;;1.60;;
53313;SDS011;39202;51.468;7.146;2023-04-08T22:26:34;1.90;;;1.80;;
53313;SDS011;39202;51.468;7.146;2023-04-08T22:31:36;1.90;;;1.80;;
53313;SDS011;39202;51.468;7.146;2023-04-08T22:36:37;1.65;;;1.55;;
53313;SDS011;39202;51.468;7.146;2023-04-08T22:41:40;2.03;;;1.92;;
53313;SDS011;39202;51.468;7.146;2023-04-08T22:46:42;2.00;;;1.90;;
53313;SDS011;39202;51.468;7.146;2023-04-08T22:51:44;1.80;;;1.70;;
53313;SDS011;39202;51.468;7.146;2023-04-08T22:56:47;1.75;;;1.65;;
53313;SDS011;39202;51.468;7.146;2023-04-08T23:01:49;1.60;;;1.60;;
53313;SDS011;39202;51.468;7.146;2023-04-08T23:06:51;1.95;;;1.85;;
53313;SDS011;39202;51.468;7.146;2023-04-08T23:11:54;1.60;;;1.60;;
53313;SDS011;39202;51.468;7.146;2023-04-08T23:16:57;1.85;;;1.75;;
53313;SDS011;39202;51.468;7.146;2023-04-08T23:21:58;1.90;;;1.80;;
53313;SDS011;39202;51.468;7.146;2023-04-08T23:27:01;1.80;;;1.70;;
53313;SDS011;39202;51.468;7.146;2023-04-08T23:32:03;1.80;;;1.70;;
53313;SDS011;39202;51.468;7.146;2023-04-08T23:37:05;1.73;;;1.63;;
53313;SDS011;39202;51.468;7.146;2023-04-08T23:42:08;1.75;;;1.70;;
53313;SDS011;39202;51.468;7.146;2023-04-08T23:47:10;1.55;;;1.52;;
53313;SDS011;39202;51.468;7.146;2023-04-08T23:52:11;1.90;;;1.80;;
53313;SDS011;39202;51.468;7.146;2023-04-08T23:57:15;1.88;;;1.77;;
